sensor_id;sensor_type;location;lat;lon;timestamp;pressure;altitude;pressure_sealevel;temperature;humidity
29417;BME280;28421;51.030;4.006;2023-11-21T00:01:15;101059.94;;;7.79;100.00
29417;BME280;28421;51.030;4.006;2023-11-21T00:03:40;101070.63;;;7.79;100.00
29417;BME280;28421;51.030;4.006;2023-11-21T00:06:06;101073.81;;;7.92;100.00
29417;BME280;28421;51.030;4.006;2023-11-21T00:08:35;101090.38;;;8.05;100.00
29417;BME280;28421;51.030;4.006;2023-11-21T00:11:00;101071.19;;;8.10;100.00
29417;BME280;28421;51.030;4.006;2023-11-21T00:13:26;101054.50;;;8.16;100.00
29417;BME280;28421;51.030;4.006;2023-11-21T00:15:52;101052.75;;;8.25;100.00
29417;BME280;28421;51.030;4.006;2023-11-21T00:18:17;101059.59;;;8.37;100.00
29417;BME280;28421;51.030;4.006;2023-11-21T00:20:43;101073.63;;;8.49;100.00
29417;BME280;28421;51.030;4.006;2023-11-21T00:23:09;101048.47;;;8.32;100.00
29417;BME280;28421;51.030;4.006;2023-11-21T00:25:34;101069.00;;;8.41;100.00
29417;BME280;28421;51.030;4.006;2023-11-21T00:28:00;101076.75;;;8.62;100.00
29417;BME280;28421;51.030;4.006;2023-11-21T00:30:27;101054.75;;;8.58;100.00
29417;BME280;28421;51.030;4.006;2023-11-21T00:32:54;101086.00;;;8.85;100.00
29417;BME280;28421;51.030;4.006;2023-11-21T00:35:19;101065.06;;;8.63;100.00
29417;BME280;28421;51.030;4.006;2023-11-21T00:37:45;101070.78;;;8.68;100.00
29417;BME280;28421;51.030;4.006;2023-11-21T00:40:11;101061.38;;;8.64;100.00
29417;BME280;28421;51.030;4.006;2023-11-21T00:42:36;101093.22;;;8.85;100.00
29417;BME280;28421;51.030;4.006;2023-11-21T00:45:02;101064.19;;;8.80;100.00
29417;BME280;28421;51.030;4.006;2023-11-21T00:47:29;101070.28;;;8.90;100.00
29417;BME280;28421;51.030;4.006;2023-11-21T00:49:54;101083.38;;;8.93;100.00
29417;BME280;28421;51.030;4.006;2023-11-21T00:52:20;101069.81;;;8.95;100.00
29417;BME280;28421;51.030;4.006;2023-11-21T00:54:46;101080.06;;;9.00;100.00
29417;BME280;28421;51.030;4.006;2023-11-21T00:57:11;101061.22;;;8.91;100.00
29417;BME280;28421;51.030;4.006;2023-11-21T00:59:37;101083.16;;;9.05;100.00
29417;BME280;28421;51.030;4.006;2023-11-21T01:02:02;101089.50;;;9.04;100.00
29417;BME280;28421;51.030;4.006;2023-11-21T01:04:30;101093.94;;;9.13;100.00
29417;BME280;28421;51.030;4.006;2023-11-21T01:06:57;101086.31;;;9.00;100.00
29417;BME280;28421;51.030;4.006;2023-11-21T01:09:23;101084.75;;;8.98;100.00
29417;BME280;28421;51.030;4.006;2023-11-21T01:11:49;101102.00;;;9.13;100.00
29417;BME280;28421;51.030;4.006;2023-11-21T01:14:14;101108.03;;;9.15;100.00
29417;BME280;28421;51.030;4.006;2023-11-21T01:16:40;101102.81;;;9.13;100.00
29417;BME280;28421;51.030;4.006;2023-11-21T01:19:05;101086.97;;;9.02;100.00
29417;BME280;28421;51.030;4.006;2023-11-21T01:21:31;101097.47;;;9.13;100.00
29417;BME280;28421;51.030;4.006;2023-11-21T01:23:57;101111.28;;;9.27;100.00
29417;BME280;28421;51.030;4.006;2023-11-21T01:26:23;101097.66;;;9.20;100.00
29417;BME280;28421;51.030;4.006;2023-11-21T01:28:48;101098.84;;;9.17;100.00
29417;BME280;28421;51.030;4.006;2023-11-21T01:31:17;101109.28;;;9.29;100.00
29417;BME280;28421;51.030;4.006;2023-11-21T01:33:42;101127.69;;;9.41;100.00
29417;BME280;28421;51.030;4.006;2023-11-21T01:36:08;101134.25;;;9.47;100.00
29417;BME280;28421;51.030;4.006;2023-11-21T01:38:34;101127.69;;;9.41;100.00
29417;BME280;28421;51.030;4.006;2023-11-21T01:41:00;101115.00;;;9.26;100.00
29417;BME280;28421;51.030;4.006;2023-11-21T01:43:26;101135.72;;;9.41;100.00
29417;BME280;28421;51.030;4.006;2023-11-21T01:45:53;101133.19;;;9.40;100.00
29417;BME280;28421;51.030;4.006;2023-11-21T01:48:22;101128.59;;;9.32;100.00
29417;BME280;28421;51.030;4.006;2023-11-21T01:50:48;101120.28;;;9.17;100.00
29417;BME280;28421;51.030;4.006;2023-11-21T01:53:14;101135.44;;;9.27;100.00
29417;BME280;28421;51.030;4.006;2023-11-21T01:55:41;101100.13;;;9.13;100.00
29417;BME280;28421;51.030;4.006;2023-11-21T01:58:07;101156.25;;;9.51;100.00
29417;BME280;28421;51.030;4.006;2023-11-21T02:00:33;101137.47;;;9.33;100.00
29417;BME280;28421;51.030;4.006;2023-11-21T02:02:59;101153.16;;;9.37;100.00
29417;BME280;28421;51.030;4.006;2023-11-21T02:05:25;101139.88;;;9.36;100.00
29417;BME280;28421;51.030;4.006;2023-11-21T02:07:51;101133.97;;;9.32;100.00
29417;BME280;28421;51.030;4.006;2023-11-21T02:10:18;101127.34;;;9.18;100.00
29417;BME280;28421;51.030;4.006;2023-11-21T02:12:49;101099.00;;;8.98;100.00
29417;BME280;28421;51.030;4.006;2023-11-21T02:15:18;101156.44;;;9.31;100.00
29417;BME280;28421;51.030;4.006;2023-11-21T02:17:47;101151.00;;;9.23;100.00
29417;BME280;28421;51.030;4.006;2023-11-21T02:20:17;101158.28;;;9.31;100.00
29417;BME280;28421;51.030;4.006;2023-11-21T02:22:56;101130.38;;;9.24;100.00
29417;BME280;28421;51.030;4.006;2023-11-21T02:27:51;101143.72;;;9.33;100.00
29417;BME280;28421;51.030;4.006;2023-11-21T02:30:17;101148.03;;;9.26;100.00
29417;BME280;28421;51.030;4.006;2023-11-21T02:32:44;101134.59;;;9.26;100.00
29417;BME280;28421;51.030;4.006;2023-11-21T02:35:09;101136.06;;;9.20;100.00
29417;BME280;28421;51.030;4.006;2023-11-21T02:37:35;101129.72;;;9.21;100.00
29417;BME280;28421;51.030;4.006;2023-11-21T02:40:01;101167.59;;;9.44;100.00
29417;BME280;28421;51.030;4.006;2023-11-21T02:42:31;101134.91;;;9.23;100.00
29417;BME280;28421;51.030;4.006;2023-11-21T02:44:57;101163.00;;;9.37;100.00
29417;BME280;28421;51.030;4.006;2023-11-21T02:47:22;101162.34;;;9.35;100.00
29417;BME280;28421;51.030;4.006;2023-11-21T02:49:48;101147.31;;;9.24;100.00
29417;BME280;28421;51.030;4.006;2023-11-21T02:52:14;101144.34;;;9.27;100.00
29417;BME280;28421;51.030;4.006;2023-11-21T02:54:39;101123.81;;;9.18;100.00
29417;BME280;28421;51.030;4.006;2023-11-21T02:57:04;101155.28;;;9.34;100.00
29417;BME280;28421;51.030;4.006;2023-11-21T02:59:31;101138.44;;;9.24;100.00
29417;BME280;28421;51.030;4.006;2023-11-21T03:01:56;101121.97;;;9.18;100.00
29417;BME280;28421;51.030;4.006;2023-11-21T03:04:23;101156.34;;;9.41;100.00
29417;BME280;28421;51.030;4.006;2023-11-21T03:06:48;101175.88;;;9.51;100.00
29417;BME280;28421;51.030;4.006;2023-11-21T03:09:14;101167.94;;;9.41;100.00
29417;BME280;28421;51.030;4.006;2023-11-21T03:11:41;101170.50;;;9.51;100.00
29417;BME280;28421;51.030;4.006;2023-11-21T03:14:07;101165.97;;;9.52;100.00
29417;BME280;28421;51.030;4.006;2023-11-21T03:16:32;101152.97;;;9.39;100.00
29417;BME280;28421;51.030;4.006;2023-11-21T03:18:58;101157.03;;;9.43;100.00
29417;BME280;28421;51.030;4.006;2023-11-21T03:21:24;101141.53;;;9.37;100.00
29417;BME280;28421;51.030;4.006;2023-11-21T03:23:50;101165.63;;;9.46;100.00
29417;BME280;28421;51.030;4.006;2023-11-21T03:26:16;101152.66;;;9.42;100.00
29417;BME280;28421;51.030;4.006;2023-11-21T03:28:42;101146.53;;;9.32;100.00
29417;BME280;28421;51.030;4.006;2023-11-21T03:31:07;101169.44;;;9.44;100.00
29417;BME280;28421;51.030;4.006;2023-11-21T03:33:34;101174.16;;;9.42;100.00
29417;BME280;28421;51.030;4.006;2023-11-21T03:36:00;101156.34;;;9.41;100.00
29417;BME280;28421;51.030;4.006;2023-11-21T03:38:26;101179.94;;;9.55;100.00
29417;BME280;28421;51.030;4.006;2023-11-21T03:40:51;101185.00;;;9.58;100.00
29417;BME280;28421;51.030;4.006;2023-11-21T03:43:16;101160.38;;;9.45;100.00
29417;BME280;28421;51.030;4.006;2023-11-21T03:45:42;101175.19;;;9.49;100.00
29417;BME280;28421;51.030;4.006;2023-11-21T03:48:09;101169.19;;;9.55;100.00
29417;BME280;28421;51.030;4.006;2023-11-21T03:50:37;101178.75;;;9.58;100.00
29417;BME280;28421;51.030;4.006;2023-11-21T03:53:02;101208.50;;;9.64;100.00
29417;BME280;28421;51.030;4.006;2023-11-21T03:55:29;101171.03;;;9.55;100.00
29417;BME280;28421;51.030;4.006;2023-11-21T03:57:56;101206.06;;;9.71;100.00
29417;BME280;28421;51.030;4.006;2023-11-21T04:00:22;101171.19;;;9.53;100.00
29417;BME280;28421;51.030;4.006;2023-11-21T04:02:47;101206.91;;;9.71;100.00
29417;BME280;28421;51.030;4.006;2023-11-21T04:05:13;101181.91;;;9.53;100.00
29417;BME280;28421;51.030;4.006;2023-11-21T04:07:38;101197.09;;;9.62;100.00
29417;BME280;28421;51.030;4.006;2023-11-21T04:10:06;101190.13;;;9.52;100.00
29417;BME280;28421;51.030;4.006;2023-11-21T04:12:34;101206.66;;;9.65;100.00
29417;BME280;28421;51.030;4.006;2023-11-21T04:15:00;101216.94;;;9.69;100.00
29417;BME280;28421;51.030;4.006;2023-11-21T04:17:25;101208.34;;;9.66;100.00
29417;BME280;28421;51.030;4.006;2023-11-21T04:19:50;101196.41;;;9.60;100.00
29417;BME280;28421;51.030;4.006;2023-11-21T04:22:16;101216.34;;;9.58;100.00
29417;BME280;28421;51.030;4.006;2023-11-21T04:24:41;101205.47;;;9.59;100.00
29417;BME280;28421;51.030;4.006;2023-11-21T04:27:07;101204.75;;;9.57;100.00
29417;BME280;28421;51.030;4.006;2023-11-21T04:29:33;101234.41;;;9.74;100.00
29417;BME280;28421;51.030;4.006;2023-11-21T04:31:58;101217.41;;;9.65;100.00
29417;BME280;28421;51.030;4.006;2023-11-21T04:34:23;101238.63;;;9.76;100.00
29417;BME280;28421;51.030;4.006;2023-11-21T04:36:49;101256.84;;;9.90;100.00
29417;BME280;28421;51.030;4.006;2023-11-21T04:39:15;101228.22;;;9.73;100.00
29417;BME280;28421;51.030;4.006;2023-11-21T04:41:41;101238.84;;;9.83;100.00
29417;BME280;28421;51.030;4.006;2023-11-21T04:44:06;101220.00;;;9.75;100.00
29417;BME280;28421;51.030;4.006;2023-11-21T04:46:32;101220.00;;;9.75;100.00
29417;BME280;28421;51.030;4.006;2023-11-21T04:48:58;101262.63;;;9.95;100.00
29417;BME280;28421;51.030;4.006;2023-11-21T04:51:23;101252.13;;;9.84;100.00
29417;BME280;28421;51.030;4.006;2023-11-21T04:53:49;101275.41;;;10.02;100.00
29417;BME280;28421;51.030;4.006;2023-11-21T04:56:14;101256.75;;;9.74;100.00
29417;BME280;28421;51.030;4.006;2023-11-21T04:58:41;101260.91;;;9.68;100.00
29417;BME280;28421;51.030;4.006;2023-11-21T05:01:09;101272.22;;;9.54;100.00
29417;BME280;28421;51.030;4.006;2023-11-21T05:03:35;101259.69;;;9.63;100.00
29417;BME280;28421;51.030;4.006;2023-11-21T05:06:00;101235.84;;;9.60;100.00
29417;BME280;28421;51.030;4.006;2023-11-21T05:08:26;101255.66;;;9.85;100.00
29417;BME280;28421;51.030;4.006;2023-11-21T05:10:52;101273.19;;;9.97;100.00
29417;BME280;28421;51.030;4.006;2023-11-21T05:13:19;101260.00;;;9.86;100.00
29417;BME280;28421;51.030;4.006;2023-11-21T05:15:45;101249.28;;;9.86;100.00
29417;BME280;28421;51.030;4.006;2023-11-21T05:18:11;101254.09;;;9.82;100.00
29417;BME280;28421;51.030;4.006;2023-11-21T05:20:36;101273.97;;;9.89;100.00
29417;BME280;28421;51.030;4.006;2023-11-21T05:23:03;101265.84;;;9.81;100.00
29417;BME280;28421;51.030;4.006;2023-11-21T05:25:28;101302.03;;;9.95;100.00
29417;BME280;28421;51.030;4.006;2023-11-21T05:27:54;101310.44;;;9.92;100.00
29417;BME280;28421;51.030;4.006;2023-11-21T05:30:26;101284.19;;;9.86;100.00
29417;BME280;28421;51.030;4.006;2023-11-21T05:32:51;101260.91;;;9.68;100.00
29417;BME280;28421;51.030;4.006;2023-11-21T05:35:17;101288.41;;;9.88;100.00
29417;BME280;28421;51.030;4.006;2023-11-21T05:37:43;101302.13;;;9.59;100.00
29417;BME280;28421;51.030;4.006;2023-11-21T05:40:09;101301.94;;;9.79;100.00
29417;BME280;28421;51.030;4.006;2023-11-21T05:42:35;101331.78;;;9.76;100.00
29417;BME280;28421;51.030;4.006;2023-11-21T05:45:01;101314.59;;;9.33;100.00
29417;BME280;28421;51.030;4.006;2023-11-21T05:47:44;101316.38;;;9.42;100.00
29417;BME280;28421;51.030;4.006;2023-11-21T05:50:12;101320.19;;;9.57;100.00
29417;BME280;28421;51.030;4.006;2023-11-21T05:52:40;101312.88;;;9.41;100.00
29417;BME280;28421;51.030;4.006;2023-11-21T05:55:06;101337.00;;;9.59;100.00
29417;BME280;28421;51.030;4.006;2023-11-21T05:57:39;101313.44;;;9.53;100.00
29417;BME280;28421;51.030;4.006;2023-11-21T06:00:09;101331.84;;;9.66;100.00
29417;BME280;28421;51.030;4.006;2023-11-21T06:02:51;101334.16;;;9.61;100.00
29417;BME280;28421;51.030;4.006;2023-11-21T06:05:22;101323.81;;;9.48;100.00
29417;BME280;28421;51.030;4.006;2023-11-21T06:07:55;101323.97;;;9.46;100.00
29417;BME280;28421;51.030;4.006;2023-11-21T06:10:24;101348.75;;;9.58;100.00
29417;BME280;28421;51.030;4.006;2023-11-21T06:12:50;101344.22;;;9.59;100.00
29417;BME280;28421;51.030;4.006;2023-11-21T06:15:15;101359.94;;;9.71;100.00
29417;BME280;28421;51.030;4.006;2023-11-21T06:17:44;101363.38;;;9.82;100.00
29417;BME280;28421;51.030;4.006;2023-11-21T06:20:15;101327.59;;;9.37;100.00
29417;BME280;28421;51.030;4.006;2023-11-21T06:22:45;101341.38;;;9.60;100.00
29417;BME280;28421;51.030;4.006;2023-11-21T06:25:12;101372.06;;;9.76;100.00
29417;BME280;28421;51.030;4.006;2023-11-21T06:27:45;101374.28;;;9.80;100.00
29417;BME280;28421;51.030;4.006;2023-11-21T06:30:12;101320.75;;;9.61;100.00
29417;BME280;28421;51.030;4.006;2023-11-21T06:32:39;101372.59;;;9.97;100.00
29417;BME280;28421;51.030;4.006;2023-11-21T06:35:11;101351.25;;;9.95;100.00
29417;BME280;28421;51.030;4.006;2023-11-21T06:37:37;101339.06;;;9.83;100.00
29417;BME280;28421;51.030;4.006;2023-11-21T06:40:03;101377.38;;;10.11;100.00
29417;BME280;28421;51.030;4.006;2023-11-21T06:42:32;101333.53;;;9.85;100.00
29417;BME280;28421;51.030;4.006;2023-11-21T06:44:59;101392.00;;;10.09;100.00
29417;BME280;28421;51.030;4.006;2023-11-21T06:47:25;101396.06;;;9.95;100.00
29417;BME280;28421;51.030;4.006;2023-11-21T06:49:51;101384.25;;;9.88;100.00
29417;BME280;28421;51.030;4.006;2023-11-21T06:52:17;101381.97;;;9.75;100.00
29417;BME280;28421;51.030;4.006;2023-11-21T06:54:43;101390.00;;;9.57;100.00
29417;BME280;28421;51.030;4.006;2023-11-21T06:57:09;101391.00;;;9.56;100.00
29417;BME280;28421;51.030;4.006;2023-11-21T06:59:34;101387.97;;;9.24;100.00
29417;BME280;28421;51.030;4.006;2023-11-21T07:02:00;101384.44;;;9.23;100.00
29417;BME280;28421;51.030;4.006;2023-11-21T07:04:25;101406.06;;;9.21;100.00
29417;BME280;28421;51.030;4.006;2023-11-21T07:06:52;101410.22;;;9.34;100.00
29417;BME280;28421;51.030;4.006;2023-11-21T07:09:18;101403.41;;;9.12;100.00
29417;BME280;28421;51.030;4.006;2023-11-21T07:11:47;101423.28;;;9.19;100.00
29417;BME280;28421;51.030;4.006;2023-11-21T07:14:13;101439.75;;;9.34;100.00
29417;BME280;28421;51.030;4.006;2023-11-21T07:16:38;101412.28;;;9.22;100.00
29417;BME280;28421;51.030;4.006;2023-11-21T07:19:05;101437.25;;;9.50;100.00
29417;BME280;28421;51.030;4.006;2023-11-21T07:21:36;101449.47;;;9.62;100.00
29417;BME280;28421;51.030;4.006;2023-11-21T07:24:03;101439.16;;;9.58;100.00
29417;BME280;28421;51.030;4.006;2023-11-21T07:26:29;101457.44;;;9.54;100.00
29417;BME280;28421;51.030;4.006;2023-11-21T07:28:55;101430.59;;;9.27;100.00
29417;BME280;28421;51.030;4.006;2023-11-21T07:31:23;101459.69;;;9.49;100.00
29417;BME280;28421;51.030;4.006;2023-11-21T07:33:52;101433.69;;;9.50;100.00
29417;BME280;28421;51.030;4.006;2023-11-21T07:36:18;101417.75;;;9.48;100.00
29417;BME280;28421;51.030;4.006;2023-11-21T07:38:44;101462.56;;;9.65;100.00
29417;BME280;28421;51.030;4.006;2023-11-21T07:41:10;101457.00;;;9.77;100.00
29417;BME280;28421;51.030;4.006;2023-11-21T07:43:36;101461.97;;;9.71;100.00
29417;BME280;28421;51.030;4.006;2023-11-21T07:46:02;101467.66;;;9.68;100.00
29417;BME280;28421;51.030;4.006;2023-11-21T07:48:32;101472.91;;;9.88;100.00
29417;BME280;28421;51.030;4.006;2023-11-21T07:50:58;101482.72;;;9.79;100.00
29417;BME280;28421;51.030;4.006;2023-11-21T07:53:24;101477.88;;;9.83;100.00
29417;BME280;28421;51.030;4.006;2023-11-21T07:55:56;101498.84;;;9.97;100.00
29417;BME280;28421;51.030;4.006;2023-11-21T07:58:22;101484.22;;;9.82;100.00
29417;BME280;28421;51.030;4.006;2023-11-21T08:00:49;101493.84;;;9.84;100.00
29417;BME280;28421;51.030;4.006;2023-11-21T08:03:15;101504.44;;;9.86;100.00
29417;BME280;28421;51.030;4.006;2023-11-21T08:05:41;101489.31;;;10.03;100.00
29417;BME280;28421;51.030;4.006;2023-11-21T08:08:06;101508.13;;;10.03;100.00
29417;BME280;28421;51.030;4.006;2023-11-21T08:10:33;101511.81;;;10.02;100.00
29417;BME280;28421;51.030;4.006;2023-11-21T08:12:58;101491.53;;;9.71;100.00
29417;BME280;28421;51.030;4.006;2023-11-21T08:15:24;101506.25;;;9.85;100.00
29417;BME280;28421;51.030;4.006;2023-11-21T08:17:49;101489.75;;;9.62;100.00
29417;BME280;28421;51.030;4.006;2023-11-21T08:20:15;101515.97;;;9.96;100.00
29417;BME280;28421;51.030;4.006;2023-11-21T08:22:44;101493.69;;;9.86;100.00
29417;BME280;28421;51.030;4.006;2023-11-21T08:25:10;101525.88;;;10.13;100.00
29417;BME280;28421;51.030;4.006;2023-11-21T08:27:36;101513.19;;;10.06;100.00
29417;BME280;28421;51.030;4.006;2023-11-21T08:30:05;101531.81;;;10.17;100.00
29417;BME280;28421;51.030;4.006;2023-11-21T08:32:32;101521.09;;;9.89;100.00
29417;BME280;28421;51.030;4.006;2023-11-21T08:35:01;101503.28;;;9.70;100.00
29417;BME280;28421;51.030;4.006;2023-11-21T08:37:26;101528.13;;;9.90;100.00
29417;BME280;28421;51.030;4.006;2023-11-21T08:39:53;101517.41;;;9.90;100.00
29417;BME280;28421;51.030;4.006;2023-11-21T08:42:19;101530.06;;;9.80;100.00
29417;BME280;28421;51.030;4.006;2023-11-21T08:44:44;101534.59;;;9.98;100.00
29417;BME280;28421;51.030;4.006;2023-11-21T08:47:11;101517.47;;;9.99;100.00
29417;BME280;28421;51.030;4.006;2023-11-21T08:49:36;101532.38;;;9.93;100.00
29417;BME280;28421;51.030;4.006;2023-11-21T08:52:03;101540.16;;;9.96;100.00
29417;BME280;28421;51.030;4.006;2023-11-21T08:54:30;101516.25;;;9.93;100.00
29417;BME280;28421;51.030;4.006;2023-11-21T08:56:56;101551.94;;;10.03;100.00
29417;BME280;28421;51.030;4.006;2023-11-21T08:59:26;101538.53;;;10.03;100.00
29417;BME280;28421;51.030;4.006;2023-11-21T09:01:51;101538.31;;;10.14;100.00
29417;BME280;28421;51.030;4.006;2023-11-21T09:04:17;101540.81;;;10.43;100.00
29417;BME280;28421;51.030;4.006;2023-11-21T09:06:42;101564.63;;;10.56;100.00
29417;BME280;28421;51.030;4.006;2023-11-21T09:09:08;101576.81;;;10.68;100.00
29417;BME280;28421;51.030;4.006;2023-11-21T09:11:35;101551.78;;;10.32;100.00
29417;BME280;28421;51.030;4.006;2023-11-21T09:14:01;101555.47;;;10.31;100.00
29417;BME280;28421;51.030;4.006;2023-11-21T09:16:28;101584.81;;;10.42;100.00
29417;BME280;28421;51.030;4.006;2023-11-21T09:18:54;101583.44;;;10.38;100.00
29417;BME280;28421;51.030;4.006;2023-11-21T09:21:19;101549.88;;;10.25;100.00
29417;BME280;28421;51.030;4.006;2023-11-21T09:23:45;101574.81;;;10.53;100.00
29417;BME280;28421;51.030;4.006;2023-11-21T09:26:11;101559.53;;;10.53;100.00
29417;BME280;28421;51.030;4.006;2023-11-21T09:28:37;101577.53;;;10.70;100.00
29417;BME280;28421;51.030;4.006;2023-11-21T09:31:07;101604.63;;;10.95;100.00
29417;BME280;28421;51.030;4.006;2023-11-21T09:33:34;101570.78;;;10.66;100.00
29417;BME280;28421;51.030;4.006;2023-11-21T09:36:00;101589.94;;;10.89;100.00
29417;BME280;28421;51.030;4.006;2023-11-21T09:38:26;101583.03;;;10.69;100.00
29417;BME280;28421;51.030;4.006;2023-11-21T09:40:54;101612.31;;;10.72;100.00
29417;BME280;28421;51.030;4.006;2023-11-21T09:43:20;101593.66;;;10.70;100.00
29417;BME280;28421;51.030;4.006;2023-11-21T09:45:52;101613.69;;;10.94;100.00
29417;BME280;28421;51.030;4.006;2023-11-21T09:48:20;101614.38;;;10.96;100.00
29417;BME280;28421;51.030;4.006;2023-11-21T09:50:47;101630.66;;;11.12;100.00
29417;BME280;28421;51.030;4.006;2023-11-21T09:53:20;101627.19;;;11.20;100.00
29417;BME280;28421;51.030;4.006;2023-11-21T09:55:53;101618.66;;;11.07;100.00
29417;BME280;28421;51.030;4.006;2023-11-21T09:58:20;101605.97;;;11.17;100.00
29417;BME280;28421;51.030;4.006;2023-11-21T10:00:49;101651.44;;;11.46;100.00
29417;BME280;28421;51.030;4.006;2023-11-21T10:03:15;101650.47;;;11.55;100.00
29417;BME280;28421;51.030;4.006;2023-11-21T10:05:42;101646.50;;;11.67;100.00
29417;BME280;28421;51.030;4.006;2023-11-21T10:08:09;101637.94;;;11.72;100.00
29417;BME280;28421;51.030;4.006;2023-11-21T10:10:42;101656.25;;;11.86;100.00
29417;BME280;28421;51.030;4.006;2023-11-21T10:13:11;101644.16;;;11.90;100.00
29417;BME280;28421;51.030;4.006;2023-11-21T10:15:37;101659.66;;;11.97;100.00
29417;BME280;28421;51.030;4.006;2023-11-21T10:18:04;101660.94;;;11.84;100.00
29417;BME280;28421;51.030;4.006;2023-11-21T10:20:32;101625.34;;;11.81;100.00
29417;BME280;28421;51.030;4.006;2023-11-21T10:22:59;101659.09;;;12.27;100.00
29417;BME280;28421;51.030;4.006;2023-11-21T10:25:27;101659.56;;;12.14;100.00
29417;BME280;28421;51.030;4.006;2023-11-21T10:28:03;101677.88;;;12.45;100.00
29417;BME280;28421;51.030;4.006;2023-11-21T10:30:33;101695.84;;;12.87;100.00
29417;BME280;28421;51.030;4.006;2023-11-21T10:33:03;101697.84;;;12.77;100.00
29417;BME280;28421;51.030;4.006;2023-11-21T10:38:13;101703.69;;;12.56;100.00
29417;BME280;28421;51.030;4.006;2023-11-21T10:40:43;101703.53;;;12.49;100.00
29417;BME280;28421;51.030;4.006;2023-11-21T10:43:10;101658.81;;;11.96;100.00
29417;BME280;28421;51.030;4.006;2023-11-21T10:45:39;101673.34;;;12.03;100.00
29417;BME280;28421;51.030;4.006;2023-11-21T10:48:06;101711.41;;;12.00;100.00
29417;BME280;28421;51.030;4.006;2023-11-21T10:50:47;101687.72;;;11.86;100.00
29417;BME280;28421;51.030;4.006;2023-11-21T10:53:12;101672.66;;;11.75;100.00
29417;BME280;28421;51.030;4.006;2023-11-21T10:55:39;101677.09;;;11.84;100.00
29417;BME280;28421;51.030;4.006;2023-11-21T10:58:04;101694.38;;;12.00;100.00
29417;BME280;28421;51.030;4.006;2023-11-21T11:00:32;101691.50;;;12.01;100.00
29417;BME280;28421;51.030;4.006;2023-11-21T11:02:59;101672.25;;;11.88;100.00
29417;BME280;28421;51.030;4.006;2023-11-21T11:05:29;101667.44;;;11.82;100.00
29417;BME280;28421;51.030;4.006;2023-11-21T11:08:08;101728.97;;;12.12;100.00
29417;BME280;28421;51.030;4.006;2023-11-21T11:10:36;101715.16;;;12.07;100.00
29417;BME280;28421;51.030;4.006;2023-11-21T11:13:03;101705.69;;;12.03;100.00
29417;BME280;28421;51.030;4.006;2023-11-21T11:15:29;101700.53;;;12.18;100.00
29417;BME280;28421;51.030;4.006;2023-11-21T11:17:55;101722.66;;;12.30;100.00
29417;BME280;28421;51.030;4.006;2023-11-21T11:20:28;101710.75;;;12.06;100.00
29417;BME280;28421;51.030;4.006;2023-11-21T11:23:04;101731.66;;;12.47;100.00
29417;BME280;28421;51.030;4.006;2023-11-21T11:28:26;101687.94;;;12.35;100.00
29417;BME280;28421;51.030;4.006;2023-11-21T11:33:58;101702.72;;;12.57;100.00
29417;BME280;28421;51.030;4.006;2023-11-21T11:36:37;101727.22;;;12.29;100.00
29417;BME280;28421;51.030;4.006;2023-11-21T11:39:29;101724.16;;;12.24;100.00
29417;BME280;28421;51.030;4.006;2023-11-21T11:41:56;101717.56;;;11.92;100.00
29417;BME280;28421;51.030;4.006;2023-11-21T11:44:59;101714.91;;;11.75;100.00
29417;BME280;28421;51.030;4.006;2023-11-21T11:47:27;101704.03;;;11.58;100.00
29417;BME280;28421;51.030;4.006;2023-11-21T11:50:08;101725.53;;;11.76;100.00
29417;BME280;28421;51.030;4.006;2023-11-21T11:52:47;101697.94;;;11.56;100.00
29417;BME280;28421;51.030;4.006;2023-11-21T11:55:15;101707.78;;;11.65;100.00
29417;BME280;28421;51.030;4.006;2023-11-21T11:57:48;101732.69;;;11.85;100.00
29417;BME280;28421;51.030;4.006;2023-11-21T12:00:21;101690.69;;;11.57;100.00
29417;BME280;28421;51.030;4.006;2023-11-21T12:02:59;101708.25;;;11.61;100.00
29417;BME280;28421;51.030;4.006;2023-11-21T12:05:28;101699.25;;;11.52;100.00
29417;BME280;28421;51.030;4.006;2023-11-21T12:07:55;101714.44;;;11.53;100.00
29417;BME280;28421;51.030;4.006;2023-11-21T12:10:27;101740.78;;;11.67;100.00
29417;BME280;28421;51.030;4.006;2023-11-21T12:13:00;101723.25;;;11.63;100.00
29417;BME280;28421;51.030;4.006;2023-11-21T12:15:27;101734.28;;;11.52;100.00
29417;BME280;28421;51.030;4.006;2023-11-21T12:17:56;101714.72;;;11.24;100.00
29417;BME280;28421;51.030;4.006;2023-11-21T12:20:23;101746.91;;;11.52;100.00
29417;BME280;28421;51.030;4.006;2023-11-21T12:22:50;101718.63;;;11.30;100.00
29417;BME280;28421;51.030;4.006;2023-11-21T12:25:17;101731.78;;;11.33;100.00
29417;BME280;28421;51.030;4.006;2023-11-21T12:27:47;101757.38;;;11.55;100.00
29417;BME280;28421;51.030;4.006;2023-11-21T12:30:15;101739.06;;;11.23;100.00
29417;BME280;28421;51.030;4.006;2023-11-21T12:32:41;101751.03;;;11.20;100.00
29417;BME280;28421;51.030;4.006;2023-11-21T12:35:09;101735.06;;;11.27;100.00
29417;BME280;28421;51.030;4.006;2023-11-21T12:37:36;101728.03;;;11.08;100.00
29417;BME280;28421;51.030;4.006;2023-11-21T12:40:04;101745.31;;;11.23;100.00
29417;BME280;28421;51.030;4.006;2023-11-21T12:42:29;101749.16;;;11.20;100.00
29417;BME280;28421;51.030;4.006;2023-11-21T12:45:26;101759.09;;;11.20;100.00
29417;BME280;28421;51.030;4.006;2023-11-21T12:47:58;101717.41;;;10.88;100.00
29417;BME280;28421;51.030;4.006;2023-11-21T12:50:28;101724.72;;;10.96;100.00
29417;BME280;28421;51.030;4.006;2023-11-21T12:52:58;101733.25;;;10.91;100.00
29417;BME280;28421;51.030;4.006;2023-11-21T12:55:24;101770.00;;;11.18;100.00
29417;BME280;28421;51.030;4.006;2023-11-21T12:57:52;101758.00;;;10.95;100.00
29417;BME280;28421;51.030;4.006;2023-11-21T13:00:22;101771.28;;;10.97;100.00